Time;durP1;ratioP1;P1;durP2;ratioP2;P2;SDS_P1;SDS_P2;PMS_P1;PMS_P2;Temp;Humidity;BMP_temperature;BMP_pressure;BME280_temperature;BME280_humidity;BME280_pressure;Samples;Min_cycle;Max_cycle;Signal;HPM_P1;HPM_P2
2023/05/26 00:01:46;;;;;;;27.02;9.13;;;12.00;80.00;;;;;;5020514;28;20038;-74
2023/05/26 00:04:16;;;;;;;32.55;10.32;;;11.90;80.00;;;;;;5020633;28;20041;-72
2023/05/26 00:06:46;;;;;;;29.95;9.60;;;12.00;80.10;;;;;;5014481;28;20148;-73
2023/05/26 00:09:12;;;;;;;26.23;9.48;;;11.90;79.90;;;;;;5020177;28;20022;-72
2023/05/26 00:11:38;;;;;;;32.88;10.13;;;11.90;79.80;;;;;;5018993;28;20057;-72
2023/05/26 00:14:04;;;;;;;30.05;10.07;;;11.90;79.80;;;;;;5022403;28;20040;-75
2023/05/26 00:16:30;;;;;;;32.28;9.90;;;11.90;79.70;;;;;;5015980;28;20059;-76
2023/05/26 00:18:56;;;;;;;32.17;8.98;;;11.80;79.60;;;;;;5018051;28;20026;-78
2023/05/26 00:21:21;;;;;;;28.83;9.45;;;11.80;79.60;;;;;;5019016;28;20128;-72
2023/05/26 00:23:47;;;;;;;29.60;9.73;;;11.90;79.40;;;;;;5021080;28;20104;-74
2023/05/26 00:26:13;;;;;;;26.52;9.15;;;11.80;79.40;;;;;;5019191;28;20124;-72
2023/05/26 00:28:38;;;;;;;27.05;8.98;;;11.80;79.40;;;;;;5014652;28;20101;-74
2023/05/26 00:31:04;;;;;;;32.70;9.85;;;11.80;79.40;;;;;;5015819;28;20025;-73
2023/05/26 00:33:30;;;;;;;33.97;11.77;;;11.70;79.40;;;;;;5022454;28;20021;-72
2023/05/26 00:35:55;;;;;;;30.42;10.82;;;11.70;79.50;;;;;;5022333;28;20462;-77
2023/05/26 00:38:21;;;;;;;32.03;9.93;;;11.70;79.50;;;;;;5023708;28;20089;-75
2023/05/26 00:40:47;;;;;;;32.40;9.45;;;11.70;79.50;;;;;;5015174;28;20036;-76
2023/05/26 00:43:12;;;;;;;29.40;9.48;;;11.60;79.60;;;;;;5020919;28;20075;-75
2023/05/26 00:45:38;;;;;;;34.80;9.73;;;11.60;79.70;;;;;;5021833;28;20377;-75
2023/05/26 00:48:05;;;;;;;24.05;9.63;;;11.60;79.90;;;;;;5020010;28;20101;-73
2023/05/26 00:50:30;;;;;;;33.95;9.65;;;11.60;79.80;;;;;;5022608;28;20029;-77
2023/05/26 00:52:58;;;;;;;30.27;8.98;;;11.60;79.90;;;;;;5019132;28;20034;-73
2023/05/26 00:55:24;;;;;;;27.92;9.93;;;11.60;79.90;;;;;;5022727;28;20367;-73
2023/05/26 00:57:50;;;;;;;31.25;10.05;;;11.50;80.00;;;;;;5021327;28;20075;-77
2023/05/26 01:00:16;;;;;;;35.85;10.18;;;11.50;80.20;;;;;;5024605;28;20079;-74
2023/05/26 01:02:44;;;;;;;35.78;11.23;;;11.50;80.20;;;;;;5021140;28;20140;-75
2023/05/26 01:05:15;;;;;;;30.42;9.07;;;11.40;80.20;;;;;;5020782;28;20021;-73
2023/05/26 01:07:42;;;;;;;33.65;10.52;;;11.40;80.20;;;;;;5018158;28;20496;-78
2023/05/26 01:10:09;;;;;;;30.70;10.27;;;11.40;80.20;;;;;;5021572;28;20056;-74
2023/05/26 01:12:47;;;;;;;34.47;9.65;;;11.30;80.30;;;;;;5022527;28;20476;-72
2023/05/26 01:15:19;;;;;;;34.33;10.10;;;11.30;80.40;;;;;;5022327;28;20021;-73
2023/05/26 01:18:05;;;;;;;31.30;10.95;;;11.30;80.60;;;;;;5018999;28;20037;-72
2023/05/26 01:20:45;;;;;;;35.05;10.77;;;11.30;80.60;;;;;;5022451;28;20013;-77
2023/05/26 01:23:59;;;;;;;27.85;9.90;;;11.30;80.70;;;;;;5020428;28;20037;-74
2023/05/26 01:26:37;;;;;;;31.90;9.98;;;11.20;80.70;;;;;;5020157;28;20053;-75
2023/05/26 01:29:12;;;;;;;35.15;10.63;;;11.20;80.70;;;;;;5019092;28;20369;-73
2023/05/26 01:31:39;;;;;;;28.33;10.02;;;11.20;80.70;;;;;;5018547;28;20052;-75
2023/05/26 01:34:05;;;;;;;30.15;10.10;;;11.20;80.50;;;;;;5021669;28;20457;-78
2023/05/26 01:36:31;;;;;;;33.95;10.95;;;11.10;80.80;;;;;;5020188;28;20033;-73
2023/05/26 01:38:57;;;;;;;39.28;10.82;;;11.10;80.80;;;;;;5019824;28;20041;-75
2023/05/26 01:41:53;;;;;;;33.13;11.02;;;11.10;80.70;;;;;;5022602;28;20120;-75
2023/05/26 01:44:52;;;;;;;34.63;11.32;;;11.10;80.80;;;;;;5021201;28;20466;-74
2023/05/26 01:47:19;;;;;;;39.55;12.05;;;11.10;80.90;;;;;;5013389;28;20469;-74
2023/05/26 01:49:47;;;;;;;42.25;13.20;;;11.10;80.90;;;;;;5024244;28;20620;-73
2023/05/26 01:52:17;;;;;;;35.65;11.15;;;11.00;81.00;;;;;;5024473;28;20036;-75
2023/05/26 01:54:47;;;;;;;28.38;10.55;;;11.00;81.10;;;;;;5021879;28;20029;-76
2023/05/26 01:57:15;;;;;;;26.20;9.77;;;10.90;81.10;;;;;;5023269;28;20038;-73
2023/05/26 01:59:40;;;;;;;31.00;11.27;;;10.90;81.00;;;;;;5013442;28;20355;-73
2023/05/26 02:02:06;;;;;;;26.50;10.35;;;10.90;81.10;;;;;;5023023;28;20043;-74
2023/05/26 02:04:32;;;;;;;37.28;11.57;;;10.90;81.00;;;;;;5018077;28;20017;-72
2023/05/26 02:06:58;;;;;;;36.55;11.32;;;10.80;81.00;;;;;;5018883;28;20032;-75
2023/05/26 02:09:24;;;;;;;34.05;10.60;;;10.80;81.10;;;;;;5019360;28;20051;-73
2023/05/26 02:11:49;;;;;;;37.95;11.05;;;10.80;81.20;;;;;;5020747;28;20050;-72
2023/05/26 02:14:15;;;;;;;35.92;11.18;;;10.80;81.20;;;;;;5019925;28;20044;-73
2023/05/26 02:16:41;;;;;;;30.52;10.75;;;10.80;81.10;;;;;;5018985;28;20455;-75
2023/05/26 02:19:07;;;;;;;32.70;10.57;;;10.70;81.20;;;;;;5019550;28;20025;-73
2023/05/26 02:21:33;;;;;;;32.03;12.07;;;10.80;81.50;;;;;;5019471;28;20034;-72
2023/05/26 02:23:59;;;;;;;32.55;12.25;;;10.70;81.50;;;;;;5021038;28;20043;-73
2023/05/26 02:26:24;;;;;;;33.00;10.75;;;10.70;81.60;;;;;;5020150;28;20038;-75
2023/05/26 02:28:55;;;;;;;30.65;10.82;;;10.60;81.50;;;;;;5019070;28;20029;-75
2023/05/26 02:31:22;;;;;;;35.00;12.10;;;10.60;81.70;;;;;;5018958;28;20470;-73
2023/05/26 02:33:47;;;;;;;30.17;11.65;;;10.60;81.70;;;;;;5022808;28;20055;-73
2023/05/26 02:36:13;;;;;;;30.15;10.88;;;10.60;81.60;;;;;;5020069;28;20474;-74
2023/05/26 02:38:40;;;;;;;34.50;11.38;;;10.60;81.60;;;;;;5022466;28;20053;-77
2023/05/26 02:41:07;;;;;;;30.52;11.10;;;10.60;81.80;;;;;;5015756;28;20460;-74
2023/05/26 02:43:33;;;;;;;37.60;11.75;;;10.60;81.80;;;;;;5014665;28;20038;-76
2023/05/26 02:45:59;;;;;;;34.33;12.48;;;10.50;81.90;;;;;;5016417;28;20035;-74
2023/05/26 02:48:25;;;;;;;33.22;12.90;;;10.50;82.00;;;;;;5021762;28;20033;-75
2023/05/26 02:50:51;;;;;;;34.80;10.65;;;10.40;82.10;;;;;;5020564;28;20088;-79
2023/05/26 02:53:18;;;;;;;38.47;11.60;;;10.40;81.90;;;;;;5016258;28;20104;-73
2023/05/26 02:55:44;;;;;;;30.58;11.10;;;10.30;82.20;;;;;;5019253;28;20466;-73
2023/05/26 02:58:11;;;;;;;33.67;11.50;;;10.30;82.20;;;;;;5014388;28;20037;-73
2023/05/26 03:00:36;;;;;;;37.65;12.18;;;10.30;82.20;;;;;;5019439;28;20034;-75
2023/05/26 03:03:02;;;;;;;32.25;11.77;;;10.30;82.20;;;;;;5017378;28;20052;-74
2023/05/26 03:05:28;;;;;;;37.55;11.52;;;10.20;82.20;;;;;;5018568;28;20025;-74
2023/05/26 03:07:53;;;;;;;34.00;11.35;;;10.30;82.30;;;;;;5018260;28;20117;-75
2023/05/26 03:10:19;;;;;;;33.80;11.25;;;10.20;82.30;;;;;;5022218;28;20116;-77
2023/05/26 03:12:45;;;;;;;34.25;11.90;;;10.20;82.30;;;;;;5014963;28;20179;-76
2023/05/26 03:15:12;;;;;;;35.38;11.25;;;10.20;82.30;;;;;;5016362;28;20794;-74
2023/05/26 03:17:38;;;;;;;34.50;11.02;;;10.20;82.30;;;;;;5018827;28;20030;-74
2023/05/26 03:20:04;;;;;;;39.33;11.88;;;10.10;82.40;;;;;;5018076;28;20488;-76
2023/05/26 03:22:30;;;;;;;37.03;12.00;;;10.10;82.50;;;;;;5018477;28;20033;-72
2023/05/26 03:24:55;;;;;;;28.83;10.63;;;10.10;82.40;;;;;;5011278;28;20026;-76
2023/05/26 03:27:26;;;;;;;32.10;11.65;;;10.10;82.50;;;;;;5017087;28;20037;-74
2023/05/26 03:29:52;;;;;;;32.45;10.18;;;10.10;82.70;;;;;;5017868;28;20470;-76
2023/05/26 03:32:17;;;;;;;33.40;10.93;;;10.00;82.60;;;;;;5014369;28;20112;-74
2023/05/26 03:34:44;;;;;;;29.88;10.90;;;10.10;82.60;;;;;;5017564;28;20112;-76
2023/05/26 03:37:15;;;;;;;34.28;11.23;;;10.00;82.60;;;;;;5019430;28;20470;-76
2023/05/26 03:39:41;;;;;;;36.55;11.77;;;10.00;82.60;;;;;;5011765;28;20381;-77
2023/05/26 03:42:07;;;;;;;31.85;11.32;;;10.00;82.60;;;;;;5019675;28;20026;-73
2023/05/26 03:44:32;;;;;;;36.50;12.05;;;10.00;82.60;;;;;;5015331;28;20212;-78
2023/05/26 03:46:58;;;;;;;34.53;12.27;;;9.90;82.90;;;;;;5018212;28;20155;-74
2023/05/26 03:49:24;;;;;;;37.10;11.70;;;9.90;82.90;;;;;;5018757;28;20025;-74
2023/05/26 03:51:50;;;;;;;35.88;12.60;;;9.90;82.90;;;;;;5020597;28;20048;-75
2023/05/26 03:54:15;;;;;;;32.28;11.48;;;9.90;83.00;;;;;;5021155;28;20589;-75
2023/05/26 03:56:41;;;;;;;34.67;11.52;;;9.90;83.00;;;;;;5022423;28;20116;-79
2023/05/26 03:59:07;;;;;;;34.85;11.45;;;9.80;83.20;;;;;;5016398;28;20047;-75
2023/05/26 04:01:33;;;;;;;33.55;12.30;;;9.90;83.30;;;;;;5018948;28;20071;-74
2023/05/26 04:03:58;;;;;;;38.88;12.80;;;9.90;83.10;;;;;;5018378;28;20083;-75
2023/05/26 04:06:24;;;;;;;36.22;13.02;;;9.90;83.10;;;;;;5023275;28;20033;-75
2023/05/26 04:08:50;;;;;;;44.47;14.25;;;9.90;83.20;;;;;;5018848;28;20037;-72
2023/05/26 04:11:17;;;;;;;38.63;13.43;;;9.90;83.00;;;;;;5023077;28;20121;-75
2023/05/26 04:13:44;;;;;;;38.70;11.93;;;9.80;83.40;;;;;;5020355;28;20033;-78
2023/05/26 04:16:10;;;;;;;36.00;13.32;;;9.80;83.50;;;;;;5019456;28;20120;-75
2023/05/26 04:18:36;;;;;;;35.22;12.43;;;9.80;83.60;;;;;;5025411;28;20478;-76
2023/05/26 04:21:03;;;;;;;42.95;14.10;;;9.90;83.60;;;;;;5024973;28;20025;-72
2023/05/26 04:23:28;;;;;;;37.60;12.65;;;9.80;83.50;;;;;;5022427;28;20025;-73
2023/05/26 04:25:55;;;;;;;34.80;12.02;;;9.90;83.40;;;;;;5024478;28;20551;-73
2023/05/26 04:28:21;;;;;;;34.25;12.68;;;9.90;83.40;;;;;;5021659;28;20030;-74
2023/05/26 04:30:47;;;;;;;30.67;12.70;;;9.90;83.60;;;;;;5018337;28;20030;-74
2023/05/26 04:33:15;;;;;;;32.92;12.43;;;10.00;83.50;;;;;;5017023;28;20048;-74
2023/05/26 04:35:44;;;;;;;37.28;13.75;;;10.10;82.90;;;;;;5017179;28;20480;-74
2023/05/26 04:38:12;;;;;;;39.95;13.57;;;10.10;83.00;;;;;;5015911;28;20254;-73
2023/05/26 04:40:39;;;;;;;33.67;12.18;;;10.10;82.60;;;;;;5021453;28;20048;-74
2023/05/26 04:43:05;;;;;;;32.20;12.13;;;10.20;82.60;;;;;;5015836;28;20045;-74
2023/05/26 04:45:31;;;;;;;43.22;13.43;;;10.30;82.10;;;;;;5021315;28;20056;-75
2023/05/26 04:47:57;;;;;;;36.67;11.05;;;10.20;82.00;;;;;;5019389;28;20361;-74
2023/05/26 04:50:24;;;;;;;34.10;11.43;;;10.20;82.60;;;;;;5014105;28;20036;-73
2023/05/26 04:52:50;;;;;;;33.95;11.52;;;10.30;82.20;;;;;;5016437;28;20064;-77
2023/05/26 04:55:15;;;;;;;39.75;11.48;;;10.30;81.70;;;;;;5014994;28;20029;-77
2023/05/26 04:57:43;;;;;;;33.55;11.95;;;10.30;81.70;;;;;;5015438;28;20036;-79
2023/05/26 05:00:10;;;;;;;30.55;10.38;;;10.30;81.90;;;;;;5021038;28;20045;-73
2023/05/26 05:02:36;;;;;;;37.53;11.20;;;10.30;81.50;;;;;;5018844;28;20365;-72
2023/05/26 05:05:02;;;;;;;35.05;11.10;;;10.40;81.10;;;;;;5019854;28;20048;-73
2023/05/26 05:07:28;;;;;;;34.40;9.82;;;10.50;80.90;;;;;;5012754;28;20038;-77
2023/05/26 05:09:54;;;;;;;40.03;10.65;;;10.50;80.70;;;;;;5018408;28;20041;-74
2023/05/26 05:12:20;;;;;;;31.55;9.65;;;10.50;80.50;;;;;;5013037;28;20049;-76
2023/05/26 05:14:45;;;;;;;30.83;9.13;;;10.60;80.30;;;;;;5015557;28;20025;-74
2023/05/26 05:17:11;;;;;;;35.47;9.90;;;10.50;79.90;;;;;;5018630;28;20041;-73
2023/05/26 05:19:37;;;;;;;32.00;9.00;;;10.70;79.70;;;;;;5014337;28;20025;-76
2023/05/26 05:22:03;;;;;;;32.28;9.13;;;11.30;78.20;;;;;;5015512;28;20155;-73
2023/05/26 05:24:28;;;;;;;37.90;9.75;;;11.80;75.30;;;;;;5016952;28;20041;-75
2023/05/26 05:26:54;;;;;;;29.73;8.25;;;12.20;73.80;;;;;;5019591;28;20034;-74
2023/05/26 05:29:20;;;;;;;25.60;8.45;;;12.60;72.40;;;;;;5018976;28;20078;-72
2023/05/26 05:31:45;;;;;;;27.88;8.43;;;12.80;70.80;;;;;;5023760;28;20116;-73
2023/05/26 05:34:11;;;;;;;30.02;8.18;;;12.80;71.00;;;;;;5016459;28;20079;-73
2023/05/26 05:36:37;;;;;;;35.42;10.57;;;13.00;70.10;;;;;;5017973;28;20042;-73
2023/05/26 05:39:03;;;;;;;30.55;8.85;;;13.00;70.50;;;;;;5018862;28;20113;-74
2023/05/26 05:41:28;;;;;;;31.02;8.50;;;12.80;70.30;;;;;;5014785;28;20387;-78
2023/05/26 05:43:56;;;;;;;29.33;9.23;;;12.90;70.60;;;;;;5014640;28;20030;-73
2023/05/26 05:46:23;;;;;;;29.27;8.80;;;12.50;71.40;;;;;;5019051;28;20032;-74
2023/05/26 05:48:49;;;;;;;29.67;8.02;;;12.90;70.60;;;;;;5018107;28;20029;-72
2023/05/26 05:51:15;;;;;;;32.17;9.13;;;13.20;69.80;;;;;;5018256;28;20087;-74
2023/05/26 05:53:40;;;;;;;27.83;9.45;;;13.10;69.20;;;;;;5019758;28;20451;-78
2023/05/26 05:56:06;;;;;;;32.20;8.80;;;12.80;70.90;;;;;;5018517;28;20386;-78
2023/05/26 05:58:32;;;;;;;32.33;8.73;;;12.70;70.60;;;;;;5022732;28;20025;-75
2023/05/26 06:00:58;;;;;;;24.80;7.38;;;12.30;72.40;;;;;;5019899;28;20036;-75
2023/05/26 06:03:24;;;;;;;30.73;8.00;;;12.10;73.20;;;;;;5022810;28;20030;-75
2023/05/26 06:05:50;;;;;;;35.78;8.02;;;11.90;73.70;;;;;;5018156;28;20466;-75
2023/05/26 06:08:15;;;;;;;28.10;8.70;;;11.60;73.90;;;;;;5017742;28;20025;-74
2023/05/26 06:10:42;;;;;;;28.63;8.75;;;11.40;75.50;;;;;;5021257;28;20029;-81
2023/05/26 06:13:08;;;;;;;33.95;8.55;;;11.50;75.20;;;;;;5018762;28;20468;-76
2023/05/26 06:15:33;;;;;;;29.88;8.75;;;11.80;74.70;;;;;;5018926;28;20025;-77
2023/05/26 06:17:59;;;;;;;27.52;7.65;;;11.70;74.30;;;;;;5021539;28;20068;-77
2023/05/26 06:20:25;;;;;;;26.33;7.65;;;11.90;74.30;;;;;;5019364;28;20373;-77
2023/05/26 06:22:51;;;;;;;30.55;8.93;;;12.10;73.80;;;;;;5018898;28;20095;-77
2023/05/26 06:25:16;;;;;;;27.38;8.20;;;12.30;73.10;;;;;;5023205;28;20032;-74
2023/05/26 06:27:42;;;;;;;27.90;9.32;;;12.10;72.70;;;;;;5020403;28;20455;-74
2023/05/26 06:30:08;;;;;;;33.03;8.45;;;12.10;73.40;;;;;;5016816;28;20025;-79
2023/05/26 06:32:34;;;;;;;31.55;8.30;;;12.00;73.90;;;;;;5023402;28;20056;-74
2023/05/26 06:35:00;;;;;;;26.67;8.60;;;12.10;73.70;;;;;;5020410;28;20060;-78
2023/05/26 06:37:25;;;;;;;33.28;8.65;;;12.30;73.30;;;;;;5018361;28;20029;-75
2023/05/26 06:39:51;;;;;;;30.20;8.48;;;12.10;73.10;;;;;;5018940;28;20117;-76
2023/05/26 06:42:17;;;;;;;29.48;7.90;;;12.10;73.70;;;;;;5017668;28;20636;-75
2023/05/26 06:44:42;;;;;;;29.48;7.32;;;12.20;73.30;;;;;;5018299;28;20080;-75
2023/05/26 06:47:09;;;;;;;27.83;8.13;;;12.40;73.40;;;;;;5018677;28;20037;-74
2023/05/26 06:49:34;;;;;;;32.15;9.13;;;12.30;71.50;;;;;;5015801;28;20033;-74
2023/05/26 06:52:00;;;;;;;31.80;8.60;;;12.20;73.20;;;;;;5019082;28;20034;-73
2023/05/26 06:54:26;;;;;;;28.70;7.57;;;12.60;72.20;;;;;;5019284;28;20082;-74
2023/05/26 06:56:51;;;;;;;36.72;9.32;;;13.10;71.60;;;;;;5019820;28;20040;-73
2023/05/26 06:59:17;;;;;;;32.58;7.75;;;12.80;71.10;;;;;;5021358;28;20514;-73
2023/05/26 07:01:42;;;;;;;30.40;8.48;;;13.00;71.00;;;;;;5016132;28;20038;-73
2023/05/26 07:04:08;;;;;;;36.40;9.13;;;13.30;69.90;;;;;;5016329;28;20037;-73
2023/05/26 07:06:35;;;;;;;23.83;7.20;;;12.80;70.20;;;;;;5019319;28;20030;-73
2023/05/26 07:09:01;;;;;;;26.50;7.65;;;12.80;70.10;;;;;;5016345;28;20017;-73
2023/05/26 07:11:26;;;;;;;29.52;7.53;;;12.70;69.40;;;;;;5015891;28;20050;-72
2023/05/26 07:13:52;;;;;;;29.25;7.20;;;13.00;69.30;;;;;;5019888;28;20114;-73
2023/05/26 07:16:18;;;;;;;24.17;8.15;;;13.20;69.70;;;;;;5009988;28;20039;-73
2023/05/26 07:18:43;;;;;;;30.73;7.20;;;13.50;67.70;;;;;;5018664;28;20452;-74
2023/05/26 07:21:09;;;;;;;36.03;8.57;;;13.40;68.20;;;;;;5019136;28;20072;-74
2023/05/26 07:23:35;;;;;;;28.17;8.07;;;13.70;67.40;;;;;;5020257;28;20056;-76
2023/05/26 07:26:00;;;;;;;26.67;7.82;;;14.10;67.20;;;;;;5019126;28;20087;-74
2023/05/26 07:28:26;;;;;;;31.50;9.52;;;13.90;66.00;;;;;;5019017;28;20040;-74
2023/05/26 07:30:52;;;;;;;26.38;7.72;;;14.10;65.70;;;;;;5014544;28;20378;-74
2023/05/26 07:33:18;;;;;;;32.03;8.80;;;14.00;66.10;;;;;;5019711;28;20390;-75
2023/05/26 07:35:43;;;;;;;26.02;7.53;;;14.30;65.70;;;;;;5017227;28;20037;-74
2023/05/26 07:38:09;;;;;;;32.42;9.27;;;14.40;65.00;;;;;;5018786;28;20531;-74
2023/05/26 07:40:35;;;;;;;31.75;9.10;;;14.70;64.40;;;;;;5015081;28;20117;-74
2023/05/26 07:43:04;;;;;;;31.60;8.65;;;14.50;65.00;;;;;;5020732;28;20120;-74
2023/05/26 07:45:30;;;;;;;28.05;8.50;;;14.30;64.50;;;;;;5024467;28;20026;-75
2023/05/26 07:47:55;;;;;;;28.77;8.23;;;14.10;65.60;;;;;;5017790;28;20060;-75
2023/05/26 07:50:21;;;;;;;27.08;7.78;;;14.40;63.90;;;;;;5019784;28;20025;-75
2023/05/26 07:52:47;;;;;;;32.53;7.45;;;14.20;62.90;;;;;;5020879;28;20034;-75
2023/05/26 07:55:13;;;;;;;25.80;7.57;;;13.60;65.30;;;;;;5022714;28;20033;-74
2023/05/26 07:57:38;;;;;;;28.55;8.07;;;13.70;65.80;;;;;;5018936;28;20942;-75
2023/05/26 08:00:05;;;;;;;28.15;8.45;;;14.00;64.40;;;;;;5025547;28;20032;-74
2023/05/26 08:02:31;;;;;;;28.90;9.07;;;14.00;65.00;;;;;;5018214;28;20085;-75
2023/05/26 08:04:56;;;;;;;31.95;8.70;;;14.10;63.10;;;;;;5023543;28;20037;-74
2023/05/26 08:07:22;;;;;;;30.45;8.80;;;14.20;65.50;;;;;;5016661;28;20146;-74
2023/05/26 08:09:48;;;;;;;29.00;9.15;;;14.60;63.10;;;;;;5024403;28;20033;-74
2023/05/26 08:12:14;;;;;;;25.20;8.02;;;14.70;63.00;;;;;;5017180;28;20099;-74
2023/05/26 08:14:39;;;;;;;26.02;8.43;;;14.80;61.40;;;;;;5021210;28;20034;-75
2023/05/26 08:17:05;;;;;;;24.08;7.78;;;14.70;62.30;;;;;;5019348;28;20061;-75
2023/05/26 08:19:31;;;;;;;23.40;7.25;;;14.80;62.80;;;;;;5024125;28;20120;-75
2023/05/26 08:21:57;;;;;;;26.73;8.00;;;14.80;61.40;;;;;;5021532;28;20076;-76
2023/05/26 08:24:24;;;;;;;26.90;8.02;;;14.80;60.90;;;;;;5018223;28;20136;-74
2023/05/26 08:26:50;;;;;;;25.05;8.65;;;14.70;60.60;;;;;;5020877;28;20100;-75
2023/05/26 08:29:16;;;;;;;23.33;7.63;;;14.90;60.60;;;;;;5026265;28;20434;-74
2023/05/26 08:31:42;;;;;;;23.70;6.82;;;14.60;60.10;;;;;;5017361;28;20063;-74
2023/05/26 08:34:08;;;;;;;25.88;8.32;;;14.60;60.90;;;;;;5025410;28;20037;-75
2023/05/26 08:36:35;;;;;;;30.45;9.48;;;15.10;59.70;;;;;;5021246;28;20033;-75
2023/05/26 08:39:01;;;;;;;30.40;10.48;;;15.50;59.90;;;;;;5024011;28;20037;-74
2023/05/26 08:41:53;;;;;;;30.15;12.25;;;15.40;57.70;;;;;;5018425;28;20071;-74
2023/05/26 08:44:19;;;;;;;25.50;7.15;;;15.20;59.90;;;;;;5018606;28;20124;-74
2023/05/26 08:46:46;;;;;;;30.98;8.57;;;14.90;61.20;;;;;;5018133;28;20128;-74
2023/05/26 08:49:16;;;;;;;27.20;7.60;;;15.40;61.10;;;;;;5021639;28;20087;-75
2023/05/26 08:51:46;;;;;;;26.50;7.30;;;15.60;58.60;;;;;;5023011;28;20522;-74
2023/05/26 08:54:12;;;;;;;26.13;7.47;;;15.60;58.50;;;;;;5020140;28;20044;-74
2023/05/26 08:56:38;;;;;;;27.85;7.30;;;15.60;57.60;;;;;;5023710;28;20042;-74
2023/05/26 08:59:08;;;;;;;25.75;7.47;;;15.70;57.40;;;;;;5023143;28;20053;-74
2023/05/26 09:01:34;;;;;;;23.02;8.10;;;15.70;56.80;;;;;;5025047;28;20053;-74
2023/05/26 09:04:00;;;;;;;28.10;7.20;;;15.80;55.90;;;;;;5018665;28;20155;-73
2023/05/26 09:06:26;;;;;;;27.52;8.05;;;16.10;55.60;;;;;;5023586;28;20501;-76
2023/05/26 09:08:53;;;;;;;23.73;6.30;;;16.30;55.90;;;;;;5016494;28;20496;-75
2023/05/26 09:11:25;;;;;;;24.70;7.28;;;16.10;53.60;;;;;;5020245;28;20080;-77
2023/05/26 09:13:52;;;;;;;21.30;6.38;;;16.00;53.60;;;;;;5022602;28;20041;-77
2023/05/26 09:16:21;;;;;;;20.58;6.95;;;16.10;54.90;;;;;;5021671;28;20033;-77
2023/05/26 09:18:47;;;;;;;26.70;7.93;;;16.10;55.20;;;;;;5017537;28;20489;-78
2023/05/26 09:21:13;;;;;;;25.02;7.63;;;16.00;55.70;;;;;;5021019;28;20041;-78
2023/05/26 09:23:38;;;;;;;25.55;7.65;;;16.10;56.60;;;;;;5014692;28;20129;-78
2023/05/26 09:26:06;;;;;;;22.65;6.85;;;16.40;55.40;;;;;;5018639;28;20346;-77
2023/05/26 09:28:32;;;;;;;27.08;7.28;;;16.20;54.10;;;;;;5023356;28;20033;-78
2023/05/26 09:30:57;;;;;;;28.35;7.45;;;16.20;55.50;;;;;;5019935;28;20456;-78
2023/05/26 09:33:23;;;;;;;24.15;6.97;;;16.60;54.50;;;;;;5022719;28;20034;-77
2023/05/26 09:35:49;;;;;;;21.95;6.57;;;16.70;53.50;;;;;;5022357;28;20116;-78
2023/05/26 09:38:17;;;;;;;23.38;6.22;;;16.70;53.40;;;;;;5016592;28;20045;-77
2023/05/26 09:40:49;;;;;;;21.20;6.65;;;16.80;52.30;;;;;;5020389;28;20034;-77
2023/05/26 09:43:19;;;;;;;24.40;6.60;;;16.80;50.60;;;;;;5034380;28;20120;-77
2023/05/26 09:45:45;;;;;;;20.73;6.53;;;16.70;51.70;;;;;;5017683;28;20026;-77
2023/05/26 09:48:11;;;;;;;23.83;6.63;;;17.00;49.90;;;;;;5022255;28;20029;-78
2023/05/26 09:50:38;;;;;;;20.15;6.97;;;17.30;49.90;;;;;;5017842;28;20117;-78
2023/05/26 09:53:09;;;;;;;21.83;6.20;;;17.60;49.70;;;;;;5020727;28;20076;-77
2023/05/26 09:55:38;;;;;;;21.23;5.93;;;17.00;48.30;;;;;;5021086;28;20028;-77
2023/05/26 09:58:09;;;;;;;22.00;6.28;;;16.70;49.40;;;;;;5016205;28;20438;-78
2023/05/26 10:00:39;;;;;;;18.02;6.35;;;16.60;50.30;;;;;;5012740;28;20382;-78
2023/05/26 10:03:07;;;;;;;22.45;7.07;;;16.60;50.50;;;;;;5005879;28;20041;-78
2023/05/26 10:05:34;;;;;;;22.15;6.82;;;17.00;48.70;;;;;;5010605;28;20282;-78
2023/05/26 10:08:01;;;;;;;22.15;7.15;;;17.20;50.00;;;;;;5005899;28;20068;-78
2023/05/26 10:10:31;;;;;;;23.00;6.85;;;17.60;49.30;;;;;;5012223;28;20021;-78
2023/05/26 10:12:58;;;;;;;21.77;6.38;;;17.60;47.50;;;;;;5006420;28;20511;-78
2023/05/26 10:15:24;;;;;;;21.30;6.63;;;17.20;49.10;;;;;;5003912;28;20032;-79
2023/05/26 10:17:50;;;;;;;19.98;6.55;;;17.60;48.20;;;;;;5012582;28;20033;-78
2023/05/26 10:20:16;;;;;;;19.30;6.22;;;17.80;49.40;;;;;;5014277;28;20556;-78
2023/05/26 10:22:52;;;;;;;23.70;7.32;;;17.60;45.90;;;;;;5015693;28;20490;-77
2023/05/26 10:25:31;;;;;;;25.88;6.65;;;17.50;48.00;;;;;;5021878;28;20052;-77
2023/05/26 10:28:34;;;;;;;25.23;6.88;;;18.00;46.20;;;;;;5019102;28;20038;-77
2023/05/26 10:31:01;;;;;;;23.10;6.85;;;17.90;47.50;;;;;;5016513;28;20034;-77
2023/05/26 10:33:46;;;;;;;20.00;6.57;;;17.80;45.80;;;;;;5018902;28;20128;-77
2023/05/26 10:36:17;;;;;;;22.02;6.35;;;17.30;47.60;;;;;;5015538;28;20065;-77
2023/05/26 10:38:48;;;;;;;23.13;7.40;;;17.70;48.00;;;;;;5018156;28;20025;-77
2023/05/26 10:41:29;;;;;;;28.38;7.35;;;17.60;48.20;;;;;;5016511;28;20600;-78
2023/05/26 10:43:55;;;;;;;24.23;7.20;;;17.90;49.20;;;;;;5015057;28;20048;-78
2023/05/26 10:46:21;;;;;;;21.52;6.43;;;18.00;49.50;;;;;;5019556;28;20056;-77
2023/05/26 10:48:57;;;;;;;20.80;6.88;;;18.20;46.40;;;;;;5021868;28;20536;-78
2023/05/26 10:51:33;;;;;;;29.23;7.75;;;18.30;47.10;;;;;;5018550;28;20041;-77
2023/05/26 10:54:18;;;;;;;23.88;7.43;;;18.10;47.40;;;;;;5017898;28;20033;-77
2023/05/26 10:56:48;;;;;;;17.52;5.78;;;18.30;47.00;;;;;;5016169;28;20029;-78
2023/05/26 10:59:21;;;;;;;18.17;5.88;;;18.10;44.90;;;;;;5017725;28;20542;-78
2023/05/26 11:01:52;;;;;;;21.20;6.90;;;18.10;46.90;;;;;;5017576;28;20387;-78
2023/05/26 11:04:18;;;;;;;17.55;6.43;;;18.10;47.20;;;;;;5017259;28;20036;-78
2023/05/26 11:06:50;;;;;;;28.13;7.55;;;18.20;47.40;;;;;;5020230;28;20029;-78
2023/05/26 11:09:19;;;;;;;24.25;7.00;;;18.40;46.50;;;;;;5018862;28;20080;-78
2023/05/26 11:11:53;;;;;;;22.73;6.93;;;18.10;46.40;;;;;;5020037;28;20140;-78
2023/05/26 11:14:23;;;;;;;23.17;6.60;;;18.60;45.60;;;;;;5020586;28;20429;-78
2023/05/26 11:16:50;;;;;;;21.63;5.70;;;18.50;45.10;;;;;;5019368;28;20392;-78
2023/05/26 11:19:30;;;;;;;22.30;6.43;;;18.40;45.20;;;;;;5019236;28;20029;-79
2023/05/26 11:21:57;;;;;;;22.45;6.57;;;18.40;45.70;;;;;;5016132;28;20068;-78
2023/05/26 11:24:23;;;;;;;23.08;6.43;;;18.80;45.80;;;;;;5019657;28;20026;-79
2023/05/26 11:26:49;;;;;;;21.67;6.78;;;18.70;44.00;;;;;;5018457;28;20073;-78
2023/05/26 11:29:15;;;;;;;20.90;6.90;;;18.80;44.30;;;;;;5017728;28;20141;-79
2023/05/26 11:31:46;;;;;;;19.73;6.13;;;19.30;43.30;;;;;;5019408;28;20081;-79
2023/05/26 11:34:12;;;;;;;18.52;5.97;;;19.40;45.00;;;;;;5020285;28;20039;-79
2023/05/26 11:36:39;;;;;;;19.17;4.78;;;19.10;42.60;;;;;;5018229;28;20037;-79
2023/05/26 11:39:05;;;;;;;17.10;5.28;;;19.10;43.20;;;;;;5022363;28;20117;-79
2023/05/26 11:41:31;;;;;;;18.00;5.75;;;19.30;42.60;;;;;;5018733;28;20585;-80
2023/05/26 11:43:57;;;;;;;20.80;6.63;;;19.20;43.10;;;;;;5017240;28;20033;-79
2023/05/26 11:46:30;;;;;;;20.08;6.05;;;19.00;43.20;;;;;;5016809;28;20057;-79
2023/05/26 11:48:55;;;;;;;19.75;6.13;;;19.30;43.00;;;;;;5021216;28;20402;-78
2023/05/26 11:51:21;;;;;;;19.50;6.57;;;19.10;43.20;;;;;;5019052;28;20109;-78
2023/05/26 11:53:55;;;;;;;17.95;5.60;;;19.20;43.10;;;;;;5020905;28;20461;-78
2023/05/26 11:56:21;;;;;;;20.25;6.40;;;19.30;44.70;;;;;;5016851;28;20033;-78
2023/05/26 11:58:49;;;;;;;21.88;5.78;;;19.60;43.20;;;;;;5020812;28;20125;-79
2023/05/26 12:01:15;;;;;;;21.85;5.95;;;19.50;43.60;;;;;;5020926;28;20033;-79
2023/05/26 12:03:51;;;;;;;21.92;6.63;;;19.70;41.90;;;;;;5019919;28;20036;-78
2023/05/26 12:06:24;;;;;;;22.98;6.38;;;19.60;42.70;;;;;;5019208;28;20034;-79
2023/05/26 12:08:53;;;;;;;21.95;6.78;;;19.60;43.20;;;;;;5018434;28;20028;-79
2023/05/26 12:11:34;;;;;;;20.45;6.45;;;19.60;43.50;;;;;;5018207;28;20569;-79
2023/05/26 12:14:10;;;;;;;19.98;5.97;;;20.10;43.00;;;;;;5017064;28;20172;-79
2023/05/26 12:16:45;;;;;;;18.33;7.00;;;19.90;42.90;;;;;;5016672;28;20038;-78
2023/05/26 12:19:12;;;;;;;18.85;6.03;;;19.50;42.30;;;;;;5013678;28;20375;-79
2023/05/26 12:21:44;;;;;;;21.73;7.50;;;19.30;44.40;;;;;;5020683;28;20341;-78
2023/05/26 12:24:11;;;;;;;20.20;6.82;;;19.30;44.20;;;;;;5015771;28;20030;-78
2023/05/26 12:26:39;;;;;;;16.92;6.28;;;19.10;42.00;;;;;;5019589;28;20060;-78
2023/05/26 12:29:11;;;;;;;22.17;6.28;;;19.20;43.00;;;;;;5017367;28;20037;-78
2023/05/26 12:31:38;;;;;;;21.10;6.72;;;19.30;42.70;;;;;;5022695;28;20045;-78
2023/05/26 12:34:03;;;;;;;21.40;6.45;;;19.60;43.10;;;;;;5025658;28;20124;-79
2023/05/26 12:36:29;;;;;;;23.67;7.07;;;19.40;45.40;;;;;;5020214;28;20124;-78